Terminal Aerodrome Forecast
Issued by NWS

Home | Current Version | Previous Version | Text Only | Print | Product List | Glossary On
Versions: 1 2 3 4 5 6 7 8 9 10 11 12 13 14 15 16 17 18 19 20
000
FTUS42 KTAE 242300
TAFABY
TAF
KABY 242332Z 2500/2524 23004KT P6SM SCT110
     FM250900 00000KT 4SM BR SCT004
     FM251500 25005KT P6SM SCT050 SCT250
     FM252100 25008KT P6SM VCTS BKN050CB=

USA.gov is the U.S. government's official web portal to all federal, state and local government web resources and services.